Terminal Aerodrome Forecast
Issued by NWS

Home | Current Version | Previous Version | Text Only | Print | Product List | Glossary On
Versions: 1 2 3 4 5 6 7 8 9 10 11 12 13 14 15 16 17 18 19 20 21 22 23 24 25 26 27 28 29 30 31 32 33 34 35 36 37 38 39 40 41 42
000
FTUS46 KOTX 240048 AAA
TAFCOE
TAF AMD
KCOE 240048Z 2401/2424 18004KT 6SM -RASN BR SCT013 OVC026
      TEMPO 2402/2403 2SM -SN SCT006 OVC013
     FM240330 12006KT 1/2SM SN SCT004 OVC008
     FM240800 12007KT 5SM -RASN BR BKN015 OVC025
     FM241300 16009KT P6SM -RA SCT008 OVC014=

USA.gov is the U.S. government's official web portal to all federal, state and local government web resources and services.